createdAt,value
2022-12-31T00:00:08.467Z,93949.84
2022-12-31T00:02:36.189Z,93948.34
2022-12-31T00:05:03.136Z,93960.97
2022-12-31T00:07:29.801Z,93959.06
2022-12-31T00:09:56.411Z,93960.16
2022-12-31T00:12:23.162Z,93975.06
2022-12-31T00:14:49.820Z,93975.88
2022-12-31T00:17:16.585Z,93970.81
2022-12-31T00:19:43.200Z,93974.78
2022-12-31T00:22:10.008Z,93970.41
2022-12-31T00:24:36.636Z,93960.97
2022-12-31T00:27:03.414Z,93983.72
2022-12-31T00:29:30.101Z,93970.09
2022-12-31T00:31:56.749Z,93977.56
2022-12-31T00:34:23.616Z,93972.16
2022-12-31T00:36:50.372Z,93982.75
2022-12-31T00:39:17.024Z,93982.00
2022-12-31T00:41:44.275Z,93975.41
2022-12-31T00:44:14.171Z,93969.25
2022-12-31T00:49:07.257Z,93974.09
2022-12-31T00:51:33.926Z,93979.59
2022-12-31T00:54:00.735Z,93968.69
2022-12-31T00:56:29.605Z,93968.28
2022-12-31T00:58:56.954Z,93956.19
2022-12-31T01:01:26.830Z,93961.66
2022-12-31T01:03:56.294Z,93966.00
2022-12-31T01:06:23.525Z,93987.91
2022-12-31T01:08:51.275Z,93978.56
2022-12-31T01:11:24.569Z,93984.44
2022-12-31T01:13:57.117Z,93983.66
2022-12-31T01:16:27.478Z,93987.16
2022-12-31T01:18:54.918Z,93993.81
2022-12-31T01:21:22.755Z,93998.16
2022-12-31T01:23:49.430Z,93994.63
2022-12-31T01:26:17.717Z,94013.78
2022-12-31T01:28:44.968Z,94016.50
2022-12-31T01:31:15.022Z,94027.06
2022-12-31T01:33:42.537Z,94024.31
2022-12-31T01:36:12.598Z,94025.88
2022-12-31T01:38:40.359Z,94022.34
2022-12-31T01:41:08.184Z,94030.53
2022-12-31T01:43:54.064Z,94039.50
2022-12-31T01:46:36.041Z,94039.13
2022-12-31T01:49:16.671Z,94032.88
2022-12-31T01:51:48.257Z,94042.25
2022-12-31T01:54:18.668Z,94041.47
2022-12-31T01:56:48.362Z,94033.28
2022-12-31T01:59:17.514Z,94049.28
2022-12-31T02:01:46.734Z,94053.56
2022-12-31T02:04:15.187Z,94050.03
2022-12-31T02:06:47.727Z,94056.66
2022-12-31T02:09:14.454Z,94053.16
2022-12-31T02:11:41.050Z,94055.50
2022-12-31T02:14:12.361Z,94053.94
2022-12-31T02:17:00.573Z,94060.16
2022-12-31T02:20:04.751Z,94061.72
2022-12-31T02:22:49.380Z,94055.44
2022-12-31T02:26:03.890Z,94054.25
2022-12-31T02:28:46.344Z,94052.31
2022-12-31T02:31:18.490Z,94051.53
2022-12-31T02:33:53.718Z,94054.59
2022-12-31T02:36:27.874Z,94056.19
2022-12-31T02:38:55.638Z,94053.78
2022-12-31T02:41:40.916Z,94058.06
2022-12-31T02:44:25.771Z,94054.13
2022-12-31T02:47:07.847Z,94055.31
2022-12-31T02:49:55.505Z,94056.44
2022-12-31T02:53:00.521Z,94059.97
2022-12-31T02:55:37.145Z,94054.94
2022-12-31T02:58:47.190Z,94060.75
2022-12-31T03:01:39.058Z,94059.16
2022-12-31T03:04:24.480Z,94068.13
2022-12-31T03:06:52.042Z,94067.41
2022-12-31T03:09:18.745Z,94071.25
2022-12-31T03:12:04.290Z,94073.28
2022-12-31T03:14:31.016Z,94062.28
2022-12-31T03:16:57.668Z,94061.06
2022-12-31T03:19:42.966Z,94056.00
2022-12-31T03:22:27.991Z,94052.88
2022-12-31T03:25:23.580Z,94051.00
2022-12-31T03:27:50.674Z,94061.50
2022-12-31T03:30:19.255Z,94063.50
2022-12-31T03:32:47.208Z,94072.78
2022-12-31T03:35:15.830Z,94062.03
2022-12-31T03:37:43.330Z,94074.75
2022-12-31T03:40:12.928Z,94066.97
2022-12-31T03:42:40.538Z,94068.38
2022-12-31T03:45:07.896Z,94060.78
2022-12-31T03:47:34.738Z,94074.00
2022-12-31T03:50:01.562Z,94067.69
2022-12-31T03:52:28.182Z,94068.53
2022-12-31T03:54:54.846Z,94072.00
2022-12-31T03:57:21.642Z,94059.44
2022-12-31T03:59:48.282Z,94061.06
2022-12-31T04:02:15.006Z,94056.13
2022-12-31T04:04:41.739Z,94065.22
2022-12-31T04:07:08.431Z,94049.31
2022-12-31T04:09:35.217Z,94048.50
2022-12-31T04:12:02.025Z,94059.50
2022-12-31T04:14:28.639Z,94051.34
2022-12-31T04:16:55.393Z,94061.56
2022-12-31T04:19:22.067Z,94067.94
2022-12-31T04:21:48.750Z,94077.34
2022-12-31T04:24:15.635Z,94080.50
2022-12-31T04:26:43.952Z,94089.91
2022-12-31T04:29:11.053Z,94095.75
2022-12-31T04:31:37.879Z,94093.44
2022-12-31T04:34:04.687Z,94087.66
2022-12-31T04:36:31.555Z,94083.72
2022-12-31T04:38:58.205Z,94083.72
2022-12-31T04:41:27.057Z,94081.88
2022-12-31T04:43:56.112Z,94078.41
2022-12-31T04:46:28.076Z,94069.88
2022-12-31T04:48:54.831Z,94077.72
2022-12-31T04:51:22.367Z,94078.09
2022-12-31T04:53:49.814Z,94072.22
2022-12-31T04:56:17.235Z,94064.78
2022-12-31T04:58:43.986Z,94079.69
2022-12-31T05:01:11.470Z,94078.94
2022-12-31T05:03:38.843Z,94086.41
2022-12-31T05:06:08.433Z,94092.69
2022-12-31T05:08:35.037Z,94096.31
2022-12-31T05:11:01.750Z,94098.28
2022-12-31T05:13:33.104Z,94100.63
2022-12-31T05:16:01.318Z,94102.97
2022-12-31T05:18:28.806Z,94107.69
2022-12-31T05:20:55.461Z,94125.66
2022-12-31T05:23:22.552Z,94115.16
2022-12-31T05:25:49.865Z,94117.47
2022-12-31T05:28:17.082Z,94126.84
2022-12-31T05:30:44.265Z,94135.81
2022-12-31T05:33:11.177Z,94125.25
2022-12-31T05:35:37.869Z,94131.09
2022-12-31T05:38:04.536Z,94125.59
2022-12-31T05:40:31.445Z,94115.03
2022-12-31T05:42:58.084Z,94132.22
2022-12-31T05:45:30.467Z,94128.66
2022-12-31T05:47:57.900Z,94124.75
2022-12-31T05:50:24.611Z,94123.97
2022-12-31T05:52:51.244Z,94122.78
2022-12-31T05:55:17.891Z,94121.56
2022-12-31T05:57:44.524Z,94121.56
2022-12-31T06:00:12.045Z,94117.69
2022-12-31T06:02:38.811Z,94107.09
2022-12-31T06:05:06.289Z,94105.03
2022-12-31T06:07:33.413Z,94113.25
2022-12-31T06:10:00.157Z,94111.22
2022-12-31T06:12:27.131Z,94104.59
2022-12-31T06:14:53.851Z,94105.66
2022-12-31T06:17:22.416Z,94107.56
2022-12-31T06:19:49.459Z,94109.88
2022-12-31T06:22:16.547Z,94123.13
2022-12-31T06:24:43.361Z,94119.56
2022-12-31T06:27:10.028Z,94138.19
2022-12-31T06:29:36.750Z,94141.69
2022-12-31T06:32:03.562Z,94151.88
2022-12-31T06:34:30.218Z,94150.81
2022-12-31T06:36:58.223Z,94148.91
2022-12-31T06:39:25.340Z,94150.91
2022-12-31T06:41:51.954Z,94135.84
2022-12-31T06:44:18.930Z,94135.50
2022-12-31T06:46:45.757Z,94132.53
2022-12-31T06:49:12.576Z,94123.25
2022-12-31T06:51:39.217Z,94125.03
2022-12-31T06:54:06.170Z,94134.06
2022-12-31T06:56:34.746Z,94134.41
2022-12-31T06:59:02.882Z,94134.38
2022-12-31T07:01:44.545Z,94136.41
2022-12-31T07:04:52.212Z,94140.38
2022-12-31T07:08:03.202Z,94147.94
2022-12-31T07:10:42.700Z,94150.31
2022-12-31T07:13:46.333Z,94143.78
2022-12-31T07:16:30.194Z,94151.28
2022-12-31T07:19:24.007Z,94156.03
2022-12-31T07:21:53.861Z,94153.72
2022-12-31T07:24:21.134Z,94169.03
2022-12-31T07:26:59.877Z,94160.53
2022-12-31T07:29:48.362Z,94173.09
2022-12-31T07:32:23.339Z,94183.78
2022-12-31T07:35:11.353Z,94174.44
2022-12-31T07:37:56.587Z,94188.44
2022-12-31T07:40:35.027Z,94186.88
2022-12-31T07:43:12.571Z,94192.78
2022-12-31T07:45:39.327Z,94191.63
2022-12-31T07:48:21.899Z,94192.03
2022-12-31T07:50:48.887Z,94201.44
2022-12-31T07:53:15.814Z,94192.41
2022-12-31T07:55:42.565Z,94195.94
2022-12-31T07:58:21.587Z,94200.28
2022-12-31T08:00:49.726Z,94198.69
2022-12-31T08:03:37.732Z,94203.34
2022-12-31T08:06:11.138Z,94208.44
2022-12-31T08:09:19.302Z,94204.53
2022-12-31T08:12:02.573Z,94208.78
2022-12-31T08:14:30.286Z,94213.06
2022-12-31T08:16:58.028Z,94212.47
2022-12-31T08:19:30.677Z,94213.53
2022-12-31T08:22:07.841Z,94208.72
2022-12-31T08:24:49.337Z,94197.91
2022-12-31T08:27:47.004Z,94199.34
2022-12-31T08:30:16.521Z,94203.06
2022-12-31T08:32:51.958Z,94200.50
2022-12-31T08:35:46.248Z,94208.41
2022-12-31T08:38:20.550Z,94199.84
2022-12-31T08:40:50.169Z,94217.81
2022-12-31T08:43:48.174Z,94215.91
2022-12-31T08:46:26.159Z,94221.28
2022-12-31T08:48:52.980Z,94211.41
2022-12-31T08:51:23.057Z,94218.09
2022-12-31T08:53:50.033Z,94221.91
2022-12-31T08:56:36.355Z,94233.78
2022-12-31T08:59:25.301Z,94240.63
2022-12-31T09:02:07.402Z,94233.66
2022-12-31T09:05:12.713Z,94242.13
2022-12-31T09:07:47.257Z,94243.09
2022-12-31T09:10:55.524Z,94247.13
2022-12-31T09:13:30.177Z,94251.75
2022-12-31T09:16:44.872Z,94248.63
2022-12-31T09:19:11.721Z,94246.97
2022-12-31T09:21:42.034Z,94245.25
2022-12-31T09:24:11.849Z,94241.47
2022-12-31T09:26:48.337Z,94245.50
2022-12-31T09:29:20.973Z,94233.88
2022-12-31T09:31:56.759Z,94239.50
2022-12-31T09:34:45.207Z,94241.69
2022-12-31T09:37:33.774Z,94251.25
2022-12-31T09:40:16.848Z,94250.09
2022-12-31T09:43:07.988Z,94236.03
2022-12-31T09:46:02.245Z,94240.06
2022-12-31T09:48:28.835Z,94243.25
2022-12-31T09:51:13.393Z,94221.94
2022-12-31T09:54:16.757Z,94229.03
2022-12-31T09:57:08.209Z,94217.59
2022-12-31T09:59:54.269Z,94218.84
2022-12-31T10:02:49.082Z,94211.88
2022-12-31T10:05:53.694Z,94206.31
2022-12-31T10:08:42.355Z,94210.47
2022-12-31T10:11:25.657Z,94197.94
2022-12-31T10:14:10.961Z,94205.81
2022-12-31T10:16:55.855Z,94201.22
2022-12-31T10:19:41.916Z,94204.00
2022-12-31T10:22:24.235Z,94187.88
2022-12-31T10:24:56.909Z,94197.44
2022-12-31T10:27:49.406Z,94202.63
2022-12-31T10:30:19.760Z,94209.97
2022-12-31T10:33:25.601Z,94203.41
2022-12-31T10:36:05.225Z,94217.66
2022-12-31T10:38:49.930Z,94212.53
2022-12-31T10:41:35.017Z,94217.19
2022-12-31T10:44:29.693Z,94220.88
2022-12-31T10:47:08.331Z,94218.91
2022-12-31T10:50:12.358Z,94206.56
2022-12-31T10:53:09.542Z,94209.47
2022-12-31T10:55:56.527Z,94187.31
2022-12-31T10:58:32.273Z,94176.84
2022-12-31T11:01:05.128Z,94185.91
2022-12-31T11:03:33.022Z,94181.34
2022-12-31T11:06:18.247Z,94184.44
2022-12-31T11:09:08.088Z,94190.97
2022-12-31T11:11:52.346Z,94199.22
2022-12-31T11:14:55.898Z,94183.16
2022-12-31T11:17:44.615Z,94193.81
2022-12-31T11:20:32.734Z,94193.59
2022-12-31T11:23:08.326Z,94188.94
2022-12-31T11:25:59.648Z,94187.91
2022-12-31T11:28:26.249Z,94191.88
2022-12-31T11:31:04.809Z,94182.34
2022-12-31T11:33:53.041Z,94182.81
2022-12-31T11:36:36.630Z,94179.22
2022-12-31T11:39:12.367Z,94177.59
2022-12-31T11:42:01.167Z,94174.88
2022-12-31T11:44:50.217Z,94176.09
2022-12-31T11:47:25.804Z,94162.09
2022-12-31T11:50:29.723Z,94167.56
2022-12-31T11:53:11.483Z,94161.03
2022-12-31T11:56:10.224Z,94158.28
2022-12-31T11:58:37.258Z,94155.44
2022-12-31T12:01:14.084Z,94152.78
2022-12-31T12:03:43.693Z,94155.72
2022-12-31T12:06:15.804Z,94146.00
2022-12-31T12:08:44.264Z,94146.78
2022-12-31T12:11:21.343Z,94144.94
2022-12-31T12:13:48.429Z,94139.19
2022-12-31T12:16:15.877Z,94140.19
2022-12-31T12:18:46.866Z,94126.69
2022-12-31T12:21:17.417Z,94120.34
2022-12-31T12:24:19.438Z,94123.97
2022-12-31T12:26:46.466Z,94126.03
2022-12-31T12:29:28.354Z,94120.41
2022-12-31T12:31:54.983Z,94124.09
2022-12-31T12:34:25.732Z,94124.97
2022-12-31T12:36:52.405Z,94122.94
2022-12-31T12:39:25.720Z,94124.31
2022-12-31T12:42:03.718Z,94114.63
2022-12-31T12:44:31.680Z,94114.72
2022-12-31T12:46:59.427Z,94113.59
2022-12-31T12:49:29.374Z,94117.59
2022-12-31T12:52:17.625Z,94113.66
2022-12-31T12:55:06.359Z,94114.09
2022-12-31T12:58:17.126Z,94114.03
2022-12-31T13:01:01.026Z,94117.34
2022-12-31T13:04:33.556Z,94113.09
2022-12-31T13:07:07.368Z,94108.25
2022-12-31T13:09:55.517Z,94108.69
2022-12-31T13:13:13.675Z,94104.31
2022-12-31T13:15:45.223Z,94113.44
2022-12-31T13:18:32.754Z,94115.84
2022-12-31T13:21:19.324Z,94112.03
2022-12-31T13:23:58.780Z,94119.81
2022-12-31T13:26:35.920Z,94115.28
2022-12-31T13:29:04.230Z,94118.78
2022-12-31T13:31:36.232Z,94122.13
2022-12-31T13:34:14.273Z,94122.97
2022-12-31T13:36:43.199Z,94124.97
2022-12-31T13:39:19.271Z,94127.94
2022-12-31T13:41:55.502Z,94130.28
2022-12-31T13:44:48.747Z,94126.53
2022-12-31T13:47:26.967Z,94128.28
2022-12-31T13:50:02.607Z,94124.41
2022-12-31T13:52:36.692Z,94122.59
2022-12-31T13:55:17.763Z,94121.16
2022-12-31T13:57:53.378Z,94126.66
2022-12-31T14:00:22.877Z,94126.41
2022-12-31T14:03:01.532Z,94128.22
2022-12-31T14:05:37.713Z,94132.59
2022-12-31T14:08:06.381Z,94132.31
2022-12-31T14:11:10.676Z,94134.19
2022-12-31T14:13:55.806Z,94136.84
2022-12-31T14:16:46.443Z,94127.00
2022-12-31T14:19:13.050Z,94129.53
2022-12-31T14:21:56.880Z,94131.88
2022-12-31T14:24:35.337Z,94134.50
2022-12-31T14:27:07.847Z,94133.94
2022-12-31T14:29:49.881Z,94140.88
2022-12-31T14:32:39.142Z,94136.38
2022-12-31T14:35:52.879Z,94138.06
2022-12-31T14:38:25.433Z,94145.53
2022-12-31T14:41:26.621Z,94138.31
2022-12-31T14:44:24.950Z,94139.00
2022-12-31T14:46:59.473Z,94136.72
2022-12-31T14:49:41.844Z,94141.13
2022-12-31T14:52:28.620Z,94140.91
2022-12-31T14:55:00.873Z,94147.66
2022-12-31T14:58:01.422Z,94149.06
2022-12-31T15:00:40.801Z,94157.94
2022-12-31T15:03:24.786Z,94164.16
2022-12-31T15:05:53.060Z,94149.63
2022-12-31T15:08:42.761Z,94164.91
2022-12-31T15:11:36.121Z,94156.78
2022-12-31T15:14:24.237Z,94156.38
2022-12-31T15:17:20.125Z,94156.88
2022-12-31T15:20:17.867Z,94157.00
2022-12-31T15:22:47.048Z,94161.00
2022-12-31T15:25:26.550Z,94157.16
2022-12-31T15:27:54.417Z,94160.78
2022-12-31T15:30:35.488Z,94160.06
2022-12-31T15:33:08.133Z,94151.97
2022-12-31T15:35:56.580Z,94157.84
2022-12-31T15:38:37.912Z,94167.38
2022-12-31T15:41:19.950Z,94167.81
2022-12-31T15:43:54.477Z,94165.47
2022-12-31T15:46:28.128Z,94174.56
2022-12-31T15:49:24.734Z,94173.50
2022-12-31T15:52:04.494Z,94171.38
2022-12-31T15:54:35.566Z,94174.84
2022-12-31T15:57:09.022Z,94174.09
2022-12-31T15:59:38.147Z,94175.28
2022-12-31T16:02:17.776Z,94174.59
2022-12-31T16:04:44.893Z,94177.75
2022-12-31T16:07:12.619Z,94174.25
2022-12-31T16:09:39.956Z,94184.94
2022-12-31T16:12:24.447Z,94188.81
2022-12-31T16:14:56.937Z,94196.63
2022-12-31T16:17:31.376Z,94193.53
2022-12-31T16:19:59.402Z,94197.09
2022-12-31T16:22:29.281Z,94209.25
2022-12-31T16:27:50.367Z,94207.38
2022-12-31T16:30:29.172Z,94209.72
2022-12-31T16:33:02.655Z,94204.66
2022-12-31T16:35:32.272Z,94212.09
2022-12-31T16:38:08.036Z,94208.63
2022-12-31T16:40:34.881Z,94210.63
2022-12-31T16:43:01.625Z,94221.94
2022-12-31T16:45:31.334Z,94217.28
2022-12-31T16:48:12.809Z,94212.97
2022-12-31T16:50:52.892Z,94220.78
2022-12-31T16:53:24.775Z,94213.78
2022-12-31T16:56:10.585Z,94217.28
2022-12-31T16:58:42.635Z,94223.19
2022-12-31T17:01:16.266Z,94208.31
2022-12-31T17:03:47.341Z,94214.97
2022-12-31T17:06:20.005Z,94215.72
2022-12-31T17:08:55.658Z,94212.22
2022-12-31T17:11:34.245Z,94218.47
2022-12-31T17:14:07.103Z,94225.16
2022-12-31T17:16:36.273Z,94214.19
2022-12-31T17:19:03.840Z,94220.81
2022-12-31T17:21:32.238Z,94226.69
2022-12-31T17:24:05.707Z,94226.31
2022-12-31T17:26:34.785Z,94225.13
2022-12-31T17:29:03.022Z,94220.44
2022-12-31T17:31:42.325Z,94222.41
2022-12-31T17:34:15.314Z,94225.56
2022-12-31T17:36:59.294Z,94223.97
2022-12-31T17:39:27.739Z,94220.88
2022-12-31T17:41:57.867Z,94225.94
2022-12-31T17:44:28.571Z,94221.66
2022-12-31T17:46:55.557Z,94238.03
2022-12-31T17:49:29.780Z,94228.66
2022-12-31T17:51:56.412Z,94229.47
2022-12-31T17:54:23.098Z,94229.84
2022-12-31T17:56:51.296Z,94232.59
2022-12-31T17:59:21.872Z,94241.94
2022-12-31T18:01:48.942Z,94234.13
2022-12-31T18:04:18.107Z,94245.84
2022-12-31T18:06:44.901Z,94245.06
2022-12-31T18:09:11.891Z,94229.06
2022-12-31T18:11:40.200Z,94240.75
2022-12-31T18:14:07.330Z,94233.34
2022-12-31T18:16:34.395Z,94228.25
2022-12-31T18:19:01.219Z,94231.75
2022-12-31T18:21:30.629Z,94231.78
2022-12-31T18:26:24.583Z,94234.50
2022-12-31T18:28:51.287Z,94244.63
2022-12-31T18:31:27.239Z,94242.25
2022-12-31T18:33:56.016Z,94253.94
2022-12-31T18:36:23.868Z,94250.44
2022-12-31T18:38:51.044Z,94251.22
2022-12-31T18:41:23.387Z,94249.28
2022-12-31T18:43:50.962Z,94257.06
2022-12-31T18:46:21.463Z,94251.97
2022-12-31T18:48:48.289Z,94257.81
2022-12-31T18:51:17.493Z,94257.75
2022-12-31T18:53:44.314Z,94254.28
2022-12-31T18:56:16.448Z,94248.41
2022-12-31T18:58:44.378Z,94254.28
2022-12-31T19:01:33.332Z,94241.41
2022-12-31T19:04:03.018Z,94247.69
2022-12-31T19:06:30.795Z,94250.41
2022-12-31T19:08:59.168Z,94250.75
2022-12-31T19:11:27.929Z,94245.31
2022-12-31T19:13:54.534Z,94239.44
2022-12-31T19:16:21.282Z,94239.06
2022-12-31T19:18:49.062Z,94232.81
2022-12-31T19:21:18.367Z,94230.88
2022-12-31T19:23:45.844Z,94235.97
2022-12-31T19:26:15.533Z,94232.47
2022-12-31T19:28:42.789Z,94224.25
2022-12-31T19:31:09.488Z,94232.47
2022-12-31T19:33:36.129Z,94229.72
2022-12-31T19:36:03.523Z,94240.22
2022-12-31T19:38:32.093Z,94245.28
2022-12-31T19:41:00.152Z,94249.16
2022-12-31T19:43:26.831Z,94243.72
2022-12-31T19:45:53.861Z,94247.25
2022-12-31T19:48:28.736Z,94252.28
2022-12-31T19:50:59.202Z,94244.50
2022-12-31T19:53:27.458Z,94242.94
2022-12-31T19:55:54.409Z,94251.13
2022-12-31T19:58:26.307Z,94248.28
2022-12-31T20:01:02.247Z,94240.50
2022-12-31T20:03:31.084Z,94245.47
2022-12-31T20:06:07.099Z,94238.09
2022-12-31T20:08:34.868Z,94243.97
2022-12-31T20:11:17.380Z,94236.56
2022-12-31T20:13:44.835Z,94251.34
2022-12-31T20:16:14.857Z,94245.31
2022-12-31T20:18:42.747Z,94246.13
2022-12-31T20:21:12.428Z,94250.38
2022-12-31T20:23:39.254Z,94243.41
2022-12-31T20:26:06.070Z,94253.56
2022-12-31T20:28:32.821Z,94255.19
2022-12-31T20:31:05.202Z,94252.03
2022-12-31T20:33:32.005Z,94247.22
2022-12-31T20:36:05.455Z,94254.28
2022-12-31T20:38:32.114Z,94249.66
2022-12-31T20:41:04.885Z,94252.03
2022-12-31T20:43:32.795Z,94256.66
2022-12-31T20:46:00.103Z,94266.09
2022-12-31T20:48:26.812Z,94261.94
2022-12-31T20:50:59.324Z,94260.78
2022-12-31T20:53:25.976Z,94254.56
2022-12-31T20:55:52.641Z,94258.88
2022-12-31T20:58:19.415Z,94250.31
2022-12-31T21:00:50.239Z,94248.78
2022-12-31T21:04:02.273Z,94236.72
2022-12-31T21:06:08.728Z,94232.06
2022-12-31T21:08:35.538Z,94241.03
2022-12-31T21:11:03.253Z,94240.66
2022-12-31T21:13:31.109Z,94239.84
2022-12-31T21:15:57.918Z,94231.66
2022-12-31T21:18:24.667Z,94245.66
2022-12-31T21:20:52.802Z,94244.06
2022-12-31T21:23:20.308Z,94249.13
2022-12-31T21:25:50.076Z,94245.97
2022-12-31T21:28:16.995Z,94252.22
2022-12-31T21:30:43.706Z,94257.66
2022-12-31T21:33:10.374Z,94268.19
2022-12-31T21:35:51.822Z,94270.50
2022-12-31T21:38:20.150Z,94275.53
2022-12-31T21:40:47.479Z,94267.31
2022-12-31T21:43:14.965Z,94275.91
2022-12-31T21:45:42.230Z,94268.44
2022-12-31T21:48:22.021Z,94273.13
2022-12-31T21:51:03.894Z,94283.59
2022-12-31T21:53:36.578Z,94283.53
2022-12-31T21:56:09.706Z,94287.81
2022-12-31T21:58:39.818Z,94284.72
2022-12-31T22:01:25.592Z,94286.97
2022-12-31T22:03:52.543Z,94297.13
2022-12-31T22:06:22.135Z,94297.03
2022-12-31T22:08:54.182Z,94293.81
2022-12-31T22:11:23.014Z,94305.72
2022-12-31T22:13:50.553Z,94306.09
2022-12-31T22:16:20.274Z,94301.34
2022-12-31T22:18:47.900Z,94304.50
2022-12-31T22:21:18.732Z,94306.94
2022-12-31T22:23:47.593Z,94313.22
2022-12-31T22:26:15.998Z,94316.41
2022-12-31T22:28:43.880Z,94321.03
2022-12-31T22:31:14.412Z,94322.59
2022-12-31T22:33:41.974Z,94328.41
2022-12-31T22:36:12.698Z,94329.28
2022-12-31T22:38:39.411Z,94331.16
2022-12-31T22:41:20.710Z,94330.78
2022-12-31T22:44:00.243Z,94333.97
2022-12-31T22:46:29.662Z,94342.16
2022-12-31T22:49:00.430Z,94338.00
2022-12-31T22:51:55.696Z,94339.44
2022-12-31T22:54:15.110Z,94345.50
2022-12-31T22:56:41.844Z,94343.13
2022-12-31T22:59:09.330Z,94345.72
2022-12-31T23:01:36.729Z,94347.72
2022-12-31T23:04:03.882Z,94344.22
2022-12-31T23:06:30.906Z,94346.09
2022-12-31T23:09:16.434Z,94356.28
2022-12-31T23:11:43.577Z,94353.97
2022-12-31T23:14:34.924Z,94351.97
2022-12-31T23:17:31.390Z,94351.97
2022-12-31T23:20:18.833Z,94361.63
2022-12-31T23:23:05.375Z,94360.44
2022-12-31T23:25:33.941Z,94356.91
2022-12-31T23:28:00.946Z,94363.31
2022-12-31T23:30:27.745Z,94358.03
2022-12-31T23:32:54.443Z,94360.75
2022-12-31T23:35:21.444Z,94349.16
2022-12-31T23:37:48.136Z,94356.16
2022-12-31T23:40:20.896Z,94357.69
2022-12-31T23:42:49.223Z,94358.78
2022-12-31T23:45:15.970Z,94368.13
2022-12-31T23:47:42.628Z,94363.28
2022-12-31T23:50:09.403Z,94367.31
2022-12-31T23:52:36.081Z,94362.72
2022-12-31T23:55:03.726Z,94362.69
2022-12-31T23:57:30.541Z,94366.91
2022-12-31T23:59:57.276Z,94368.09
